createdAt,value
2018-12-18T00:04:21.669Z,45.74
2018-12-18T00:14:36.225Z,45.70
2018-12-18T00:19:39.533Z,46.65
2018-12-18T00:24:42.877Z,46.91
2018-12-18T00:29:46.195Z,46.70
2018-12-18T00:34:49.526Z,46.80
2018-12-18T00:39:52.841Z,46.76
2018-12-18T00:44:56.156Z,46.70
2018-12-18T00:49:59.473Z,46.50
2018-12-18T00:55:02.893Z,46.49
2018-12-18T01:00:06.849Z,46.52
2018-12-18T01:05:10.348Z,46.98
2018-12-18T01:10:13.662Z,46.82
2018-12-18T01:15:16.981Z,47.09
2018-12-18T01:20:20.294Z,47.05
2018-12-18T01:25:23.593Z,47.46
2018-12-18T01:30:26.894Z,47.31
2018-12-18T01:35:30.195Z,47.76
2018-12-18T01:40:33.497Z,47.47
2018-12-18T01:45:36.801Z,47.84
2018-12-18T01:50:40.109Z,47.91
2018-12-18T01:55:43.434Z,47.79
2018-12-18T02:00:46.744Z,47.74
2018-12-18T02:05:50.137Z,47.71
2018-12-18T02:10:53.455Z,47.97
2018-12-18T02:15:57.001Z,48.11
2018-12-18T02:21:00.303Z,47.91
2018-12-18T02:26:03.601Z,47.72
2018-12-18T02:31:06.912Z,47.31
2018-12-18T02:36:10.224Z,48.03
2018-12-18T02:41:13.536Z,47.88
2018-12-18T02:46:16.843Z,48.28
2018-12-18T02:51:20.158Z,48.05
2018-12-18T02:56:23.469Z,48.49
2018-12-18T03:01:26.786Z,48.80
2018-12-18T03:06:30.095Z,48.81
2018-12-18T03:11:33.398Z,49.25
2018-12-18T03:16:36.702Z,49.07
2018-12-18T03:21:40.478Z,49.42
2018-12-18T03:26:43.784Z,49.16
2018-12-18T03:31:51.361Z,49.39
2018-12-18T03:36:54.793Z,49.61
2018-12-18T03:41:58.117Z,49.28
2018-12-18T03:47:01.424Z,49.82
2018-12-18T03:52:04.721Z,49.58
2018-12-18T03:57:08.031Z,49.69
2018-12-18T04:02:11.341Z,49.19
2018-12-18T04:07:14.642Z,48.42
2018-12-18T04:12:22.755Z,48.40
2018-12-18T04:17:26.059Z,48.37
2018-12-18T04:22:29.416Z,48.85
2018-12-18T04:27:32.901Z,48.87
2018-12-18T04:32:36.199Z,49.14
2018-12-18T04:37:39.501Z,49.07
2018-12-18T04:42:42.815Z,49.18
2018-12-18T04:47:46.247Z,48.59
2018-12-18T04:52:49.540Z,48.65
2018-12-18T04:57:52.861Z,49.01
2018-12-18T05:02:56.178Z,49.02
2018-12-18T05:07:59.466Z,48.91
2018-12-18T05:13:02.778Z,48.76
2018-12-18T05:18:06.081Z,48.51
2018-12-18T05:23:09.401Z,48.03
2018-12-18T05:28:12.744Z,47.75
2018-12-18T05:33:16.033Z,47.34
2018-12-18T05:38:19.328Z,47.64
2018-12-18T05:43:22.748Z,47.88
2018-12-18T05:48:26.078Z,47.77
2018-12-18T05:53:29.395Z,47.85
2018-12-18T05:58:32.673Z,47.84
2018-12-18T06:03:35.981Z,48.08
2018-12-18T06:08:39.296Z,47.94
2018-12-18T06:13:42.617Z,47.98
2018-12-18T06:18:45.937Z,48.22
2018-12-18T06:23:49.256Z,48.03
2018-12-18T06:28:52.546Z,47.83
2018-12-18T06:33:55.858Z,47.78
2018-12-18T06:38:59.153Z,47.51
2018-12-18T06:44:02.465Z,47.88
2018-12-18T06:49:05.777Z,47.47
2018-12-18T06:54:09.066Z,47.86
2018-12-18T06:59:12.383Z,47.49
2018-12-18T07:04:15.668Z,47.55
2018-12-18T07:09:18.969Z,48.03
2018-12-18T07:14:22.271Z,47.83
2018-12-18T07:19:25.571Z,48.26
2018-12-18T07:24:29.856Z,48.11
2018-12-18T07:29:33.161Z,47.94
2018-12-18T07:34:36.471Z,47.53
2018-12-18T07:39:39.802Z,47.36
2018-12-18T07:44:43.146Z,46.85
2018-12-18T07:49:46.477Z,39.60
2018-12-18T07:54:49.974Z,38.69
2018-12-18T07:59:53.299Z,39.07
2018-12-18T08:04:56.601Z,39.45
2018-12-18T08:09:59.899Z,37.67
2018-12-18T08:15:03.393Z,37.01
2018-12-18T08:20:06.797Z,37.08
2018-12-18T08:25:10.097Z,37.39
2018-12-18T08:30:13.393Z,38.11
2018-12-18T08:35:16.693Z,38.14
2018-12-18T08:40:19.986Z,39.21
2018-12-18T08:45:23.293Z,39.40
2018-12-18T08:50:26.601Z,40.00
2018-12-18T08:55:29.896Z,40.43
2018-12-18T09:00:33.185Z,41.06
2018-12-18T09:05:42.943Z,41.07
2018-12-18T09:10:41.791Z,41.36
2018-12-18T09:15:50.397Z,42.16
2018-12-18T09:20:53.698Z,41.97
2018-12-18T09:25:56.997Z,42.36
2018-12-18T09:31:00.290Z,42.63
2018-12-18T09:36:03.600Z,42.66
2018-12-18T09:41:12.289Z,42.43
2018-12-18T09:46:15.594Z,42.93
2018-12-18T09:51:18.911Z,42.93
2018-12-18T09:56:22.201Z,42.84
2018-12-18T10:01:25.490Z,43.22
2018-12-18T10:06:28.809Z,43.26
2018-12-18T10:11:32.106Z,43.41
2018-12-18T10:16:35.444Z,44.03
2018-12-18T10:21:38.746Z,43.95
2018-12-18T10:26:42.073Z,44.51
2018-12-18T10:31:45.442Z,43.99
2018-12-18T10:36:48.811Z,44.22
2018-12-18T10:41:52.166Z,43.97
2018-12-18T10:46:55.499Z,44.45
2018-12-18T10:51:58.809Z,44.87
2018-12-18T10:57:02.146Z,44.72
2018-12-18T11:02:05.481Z,44.26
2018-12-18T11:07:08.790Z,44.10
2018-12-18T11:12:12.100Z,44.52
2018-12-18T11:17:15.414Z,44.44
2018-12-18T11:22:18.721Z,44.75
2018-12-18T11:27:22.039Z,44.59
2018-12-18T11:32:25.367Z,44.56
2018-12-18T11:37:28.685Z,44.86
2018-12-18T11:42:32.013Z,44.96
2018-12-18T11:47:35.342Z,45.38
2018-12-18T11:52:38.697Z,45.58
2018-12-18T11:57:42.034Z,45.83
2018-12-18T12:02:45.554Z,35.06
2018-12-18T12:07:48.906Z,38.66
2018-12-18T12:12:52.250Z,38.52
2018-12-18T12:17:55.854Z,38.42
2018-12-18T12:22:59.184Z,39.12
2018-12-18T12:28:05.614Z,38.74
2018-12-18T12:33:08.938Z,35.44
2018-12-18T12:38:12.251Z,35.06
2018-12-18T12:43:15.598Z,35.39
2018-12-18T12:48:19.441Z,36.62
2018-12-18T12:53:22.734Z,38.12
2018-12-18T12:58:26.013Z,38.23
2018-12-18T13:03:29.322Z,38.78
2018-12-18T13:08:32.758Z,39.18
2018-12-18T13:13:36.045Z,39.48
2018-12-18T13:18:39.341Z,40.15
2018-12-18T13:23:42.646Z,40.46
2018-12-18T13:28:45.948Z,41.05
2018-12-18T13:33:49.250Z,41.40
2018-12-18T13:38:52.549Z,41.56
2018-12-18T13:43:55.880Z,41.87
2018-12-18T13:48:59.176Z,41.81
2018-12-18T13:54:02.457Z,41.61
2018-12-18T13:59:05.771Z,41.73
2018-12-18T14:04:09.085Z,41.69
2018-12-18T14:09:12.401Z,41.96
2018-12-18T14:14:15.705Z,42.47
2018-12-18T14:19:19.021Z,42.31
2018-12-18T14:24:22.305Z,42.52
2018-12-18T14:29:25.626Z,42.59
2018-12-18T14:34:28.927Z,42.90
2018-12-18T14:39:32.230Z,43.21
2018-12-18T14:44:35.541Z,43.84
2018-12-18T14:49:38.853Z,44.10
2018-12-18T14:54:42.243Z,44.09
2018-12-18T14:59:45.714Z,43.88
2018-12-18T15:04:49.006Z,44.02
2018-12-18T15:09:52.290Z,43.86
2018-12-18T15:14:55.569Z,44.09
2018-12-18T15:19:58.882Z,43.78
2018-12-18T15:25:02.192Z,44.36
2018-12-18T15:30:07.996Z,44.35
2018-12-18T15:35:11.470Z,44.70
2018-12-18T15:40:14.765Z,44.40
2018-12-18T15:45:18.045Z,44.42
2018-12-18T15:50:21.334Z,44.60
2018-12-18T15:55:24.625Z,44.96
2018-12-18T16:00:27.921Z,44.85
2018-12-18T16:05:31.286Z,44.95
2018-12-18T16:10:34.580Z,45.05
2018-12-18T16:15:37.872Z,45.06
2018-12-18T16:20:41.167Z,45.31
2018-12-18T16:25:44.452Z,45.67
2018-12-18T16:30:47.745Z,45.40
2018-12-18T16:35:51.041Z,45.26
2018-12-18T16:40:54.341Z,45.77
2018-12-18T16:45:57.637Z,45.25
2018-12-18T16:51:01.089Z,45.54
2018-12-18T16:56:04.905Z,45.35
2018-12-18T17:01:08.208Z,45.18
2018-12-18T17:06:11.495Z,45.43
2018-12-18T17:11:14.845Z,45.44
2018-12-18T17:16:18.133Z,45.26
2018-12-18T17:21:21.414Z,45.65
2018-12-18T17:26:24.699Z,45.45
2018-12-18T17:31:27.996Z,45.83
2018-12-18T17:36:31.292Z,45.72
2018-12-18T17:41:34.625Z,45.80
2018-12-18T17:46:37.925Z,45.48
2018-12-18T17:51:41.216Z,45.45
2018-12-18T17:56:44.509Z,45.47
2018-12-18T18:01:47.818Z,45.18
2018-12-18T18:06:51.111Z,45.49
2018-12-18T18:11:54.517Z,45.16
2018-12-18T18:16:57.801Z,45.61
2018-12-18T18:22:01.086Z,45.77
2018-12-18T18:27:04.365Z,45.18
2018-12-18T18:32:07.648Z,45.19
2018-12-18T18:37:10.932Z,45.31
2018-12-18T18:42:14.250Z,45.48
2018-12-18T18:47:17.555Z,45.38
2018-12-18T18:52:20.845Z,45.21
2018-12-18T18:57:24.139Z,44.96
2018-12-18T19:02:27.443Z,45.41
2018-12-18T19:07:30.754Z,45.57
2018-12-18T19:12:34.064Z,45.49
2018-12-18T19:17:37.357Z,45.42
2018-12-18T19:22:40.643Z,45.16
2018-12-18T19:27:43.930Z,45.28
2018-12-18T19:32:47.239Z,45.14
2018-12-18T19:37:50.549Z,45.16
2018-12-18T19:42:53.878Z,45.15
2018-12-18T19:47:57.250Z,45.40
2018-12-18T19:53:00.552Z,45.49
2018-12-18T19:58:03.858Z,45.29
2018-12-18T20:03:07.154Z,45.36
2018-12-18T20:08:10.440Z,44.67
2018-12-18T20:13:13.956Z,44.57
2018-12-18T20:18:17.259Z,44.43
2018-12-18T20:23:20.539Z,44.17
2018-12-18T20:28:23.820Z,44.27
2018-12-18T20:33:27.103Z,43.81
2018-12-18T20:38:30.419Z,43.75
2018-12-18T20:43:33.706Z,43.79
2018-12-18T20:48:36.995Z,43.34
2018-12-18T20:53:40.294Z,43.02
2018-12-18T20:58:43.597Z,43.80
2018-12-18T21:03:46.881Z,43.79
2018-12-18T21:08:50.373Z,43.71
2018-12-18T21:13:53.873Z,43.69
2018-12-18T21:18:57.374Z,44.18
2018-12-18T21:24:00.889Z,43.71
2018-12-18T21:29:04.397Z,44.21
2018-12-18T21:34:07.909Z,44.18
2018-12-18T21:39:11.425Z,44.38
2018-12-18T21:44:14.916Z,44.25
2018-12-18T21:49:19.436Z,44.29
2018-12-18T21:54:22.941Z,44.19
2018-12-18T21:59:26.433Z,44.44
2018-12-18T22:04:29.937Z,44.46
2018-12-18T22:09:33.424Z,44.62
2018-12-18T22:14:36.905Z,44.68
2018-12-18T22:19:40.400Z,44.82
2018-12-18T22:24:43.907Z,44.96
2018-12-18T22:29:47.628Z,45.05
2018-12-18T22:34:50.917Z,44.77
2018-12-18T22:39:54.204Z,45.10
2018-12-18T22:44:57.505Z,44.79
2018-12-18T22:50:00.807Z,44.78
2018-12-18T22:55:04.212Z,45.14
2018-12-18T23:00:12.670Z,45.27
2018-12-18T23:05:16.076Z,44.84
2018-12-18T23:10:19.366Z,45.21
2018-12-18T23:15:22.788Z,45.30
2018-12-18T23:20:26.081Z,45.04
2018-12-18T23:25:29.365Z,44.89
2018-12-18T23:30:32.681Z,44.73
2018-12-18T23:35:35.977Z,44.75
2018-12-18T23:40:39.270Z,44.66
2018-12-18T23:45:42.567Z,44.79
2018-12-18T23:50:45.868Z,45.16
2018-12-18T23:55:49.164Z,45.04
